sensor_id;sensor_type;location;lat;lon;timestamp;temperature;humidity
35085;SHT85;21267;51.032;6.998;2024-02-14T00:00:43;8.91;81.90
35085;SHT85;21267;51.032;6.998;2024-02-14T00:03:10;8.93;81.94
35085;SHT85;21267;51.032;6.998;2024-02-14T00:05:37;8.93;81.65
35085;SHT85;21267;51.032;6.998;2024-02-14T00:08:04;8.93;81.97
35085;SHT85;21267;51.032;6.998;2024-02-14T00:10:31;8.89;82.04
35085;SHT85;21267;51.032;6.998;2024-02-14T00:12:58;8.93;81.95
35085;SHT85;21267;51.032;6.998;2024-02-14T00:15:25;8.98;81.73
35085;SHT85;21267;51.032;6.998;2024-02-14T00:17:52;9.03;81.51
35085;SHT85;21267;51.032;6.998;2024-02-14T00:20:20;9.12;81.06
35085;SHT85;21267;51.032;6.998;2024-02-14T00:22:46;9.19;80.72
35085;SHT85;21267;51.032;6.998;2024-02-14T00:25:13;9.26;80.40
35085;SHT85;21267;51.032;6.998;2024-02-14T00:27:45;9.33;80.25
35085;SHT85;21267;51.032;6.998;2024-02-14T00:30:12;9.37;80.11
35085;SHT85;21267;51.032;6.998;2024-02-14T00:32:39;9.44;79.79
35085;SHT85;21267;51.032;6.998;2024-02-14T00:35:07;9.44;79.92
35085;SHT85;21267;51.032;6.998;2024-02-14T00:37:34;9.39;80.56
35085;SHT85;21267;51.032;6.998;2024-02-14T00:40:01;9.24;81.54
35085;SHT85;21267;51.032;6.998;2024-02-14T00:42:28;9.19;81.98
35085;SHT85;21267;51.032;6.998;2024-02-14T00:44:55;9.18;82.39
35085;SHT85;21267;51.032;6.998;2024-02-14T00:47:21;9.11;82.68
35085;SHT85;21267;51.032;6.998;2024-02-14T00:49:48;9.12;83.13
35085;SHT85;21267;51.032;6.998;2024-02-14T00:52:15;8.95;83.73
35085;SHT85;21267;51.032;6.998;2024-02-14T00:54:43;8.91;84.05
35085;SHT85;21267;51.032;6.998;2024-02-14T01:01:39;9.06;82.84
35085;SHT85;21267;51.032;6.998;2024-02-14T01:04:05;9.11;82.91
35085;SHT85;21267;51.032;6.998;2024-02-14T01:06:34;9.15;82.63
35085;SHT85;21267;51.032;6.998;2024-02-14T01:09:01;9.18;82.80
35085;SHT85;21267;51.032;6.998;2024-02-14T01:11:28;9.19;82.72
35085;SHT85;21267;51.032;6.998;2024-02-14T01:13:55;9.24;82.25
35085;SHT85;21267;51.032;6.998;2024-02-14T01:16:21;9.36;82.04
35085;SHT85;21267;51.032;6.998;2024-02-14T01:18:48;9.30;82.18
35085;SHT85;21267;51.032;6.998;2024-02-14T01:21:17;9.39;81.71
35085;SHT85;21267;51.032;6.998;2024-02-14T01:23:43;9.41;81.60
35085;SHT85;21267;51.032;6.998;2024-02-14T01:26:10;9.40;81.70
35085;SHT85;21267;51.032;6.998;2024-02-14T01:28:38;9.43;81.78
35085;SHT85;21267;51.032;6.998;2024-02-14T01:31:05;9.40;81.97
35085;SHT85;21267;51.032;6.998;2024-02-14T01:33:33;9.41;81.90
35085;SHT85;21267;51.032;6.998;2024-02-14T01:36:00;9.44;81.97
35085;SHT85;21267;51.032;6.998;2024-02-14T01:38:27;9.41;81.85
35085;SHT85;21267;51.032;6.998;2024-02-14T01:40:53;9.41;82.14
35085;SHT85;21267;51.032;6.998;2024-02-14T01:43:20;9.43;82.01
35085;SHT85;21267;51.032;6.998;2024-02-14T01:45:47;9.40;82.18
35085;SHT85;21267;51.032;6.998;2024-02-14T01:48:15;9.40;82.23
35085;SHT85;21267;51.032;6.998;2024-02-14T01:50:45;9.47;82.04
35085;SHT85;21267;51.032;6.998;2024-02-14T01:53:12;9.51;81.95
35085;SHT85;21267;51.032;6.998;2024-02-14T01:55:41;9.51;82.05
35085;SHT85;21267;51.032;6.998;2024-02-14T01:58:08;9.48;82.19
35085;SHT85;21267;51.032;6.998;2024-02-14T02:00:37;9.51;82.18
35085;SHT85;21267;51.032;6.998;2024-02-14T02:03:04;9.46;82.32
35085;SHT85;21267;51.032;6.998;2024-02-14T02:05:30;9.51;82.13
35085;SHT85;21267;51.032;6.998;2024-02-14T02:07:58;9.53;82.36
35085;SHT85;21267;51.032;6.998;2024-02-14T02:10:25;9.51;82.36
35085;SHT85;21267;51.032;6.998;2024-02-14T02:12:59;9.57;82.32
35085;SHT85;21267;51.032;6.998;2024-02-14T02:15:28;9.51;82.46
35085;SHT85;21267;51.032;6.998;2024-02-14T02:17:56;9.55;82.26
35085;SHT85;21267;51.032;6.998;2024-02-14T02:20:23;9.58;82.41
35085;SHT85;21267;51.032;6.998;2024-02-14T02:22:50;9.54;82.62
35085;SHT85;21267;51.032;6.998;2024-02-14T02:25:17;9.58;82.71
35085;SHT85;21267;51.032;6.998;2024-02-14T02:27:44;9.61;82.53
35085;SHT85;21267;51.032;6.998;2024-02-14T02:30:11;9.58;82.69
35085;SHT85;21267;51.032;6.998;2024-02-14T02:32:42;9.60;82.77
35085;SHT85;21267;51.032;6.998;2024-02-14T02:35:09;9.63;82.95
35085;SHT85;21267;51.032;6.998;2024-02-14T02:37:36;9.60;82.94
35085;SHT85;21267;51.032;6.998;2024-02-14T02:40:03;9.60;83.02
35085;SHT85;21267;51.032;6.998;2024-02-14T02:42:31;9.64;83.05
35085;SHT85;21267;51.032;6.998;2024-02-14T02:45:00;9.61;83.17
35085;SHT85;21267;51.032;6.998;2024-02-14T02:47:28;9.58;83.22
35085;SHT85;21267;51.032;6.998;2024-02-14T02:49:56;9.60;83.30
35085;SHT85;21267;51.032;6.998;2024-02-14T02:52:24;9.58;83.29
35085;SHT85;21267;51.032;6.998;2024-02-14T02:54:50;9.63;83.41
35085;SHT85;21267;51.032;6.998;2024-02-14T02:57:19;9.64;83.36
35085;SHT85;21267;51.032;6.998;2024-02-14T02:59:45;9.60;83.55
35085;SHT85;21267;51.032;6.998;2024-02-14T03:02:15;9.63;83.40
35085;SHT85;21267;51.032;6.998;2024-02-14T03:04:44;9.64;83.44
35085;SHT85;21267;51.032;6.998;2024-02-14T03:07:19;9.63;83.52
35085;SHT85;21267;51.032;6.998;2024-02-14T03:09:47;9.63;83.71
35085;SHT85;21267;51.032;6.998;2024-02-14T03:12:14;9.70;83.51
35085;SHT85;21267;51.032;6.998;2024-02-14T03:14:43;9.63;83.70
35085;SHT85;21267;51.032;6.998;2024-02-14T03:17:10;9.64;83.72
35085;SHT85;21267;51.032;6.998;2024-02-14T03:19:37;9.61;83.85
35085;SHT85;21267;51.032;6.998;2024-02-14T03:22:06;9.64;83.88
35085;SHT85;21267;51.032;6.998;2024-02-14T03:24:35;9.67;83.78
35085;SHT85;21267;51.032;6.998;2024-02-14T03:27:03;9.65;83.94
35085;SHT85;21267;51.032;6.998;2024-02-14T03:29:31;9.65;84.01
35085;SHT85;21267;51.032;6.998;2024-02-14T03:31:59;9.65;84.11
35085;SHT85;21267;51.032;6.998;2024-02-14T03:34:34;9.64;84.19
35085;SHT85;21267;51.032;6.998;2024-02-14T03:37:02;9.65;84.26
35085;SHT85;21267;51.032;6.998;2024-02-14T03:39:30;9.67;84.26
35085;SHT85;21267;51.032;6.998;2024-02-14T03:41:57;9.71;84.27
35085;SHT85;21267;51.032;6.998;2024-02-14T03:44:31;9.73;84.36
35085;SHT85;21267;51.032;6.998;2024-02-14T03:46:58;9.67;84.55
35085;SHT85;21267;51.032;6.998;2024-02-14T03:49:27;9.71;84.48
35085;SHT85;21267;51.032;6.998;2024-02-14T03:51:54;9.70;84.58
35085;SHT85;21267;51.032;6.998;2024-02-14T03:54:21;9.70;84.63
35085;SHT85;21267;51.032;6.998;2024-02-14T03:56:48;9.69;84.65
35085;SHT85;21267;51.032;6.998;2024-02-14T03:59:16;9.74;84.68
35085;SHT85;21267;51.032;6.998;2024-02-14T04:01:47;9.71;84.64
35085;SHT85;21267;51.032;6.998;2024-02-14T04:04:14;9.71;84.73
35085;SHT85;21267;51.032;6.998;2024-02-14T04:06:41;9.74;84.73
35085;SHT85;21267;51.032;6.998;2024-02-14T04:09:09;9.77;84.76
35085;SHT85;21267;51.032;6.998;2024-02-14T04:11:35;9.77;84.86
35085;SHT85;21267;51.032;6.998;2024-02-14T04:14:03;9.77;84.96
35085;SHT85;21267;51.032;6.998;2024-02-14T04:16:29;9.80;84.90
35085;SHT85;21267;51.032;6.998;2024-02-14T04:18:56;9.75;85.11
35085;SHT85;21267;51.032;6.998;2024-02-14T04:21:23;9.73;85.30
35085;SHT85;21267;51.032;6.998;2024-02-14T04:23:50;9.74;85.33
35085;SHT85;21267;51.032;6.998;2024-02-14T04:26:20;9.81;85.15
35085;SHT85;21267;51.032;6.998;2024-02-14T04:28:47;9.77;85.29
35085;SHT85;21267;51.032;6.998;2024-02-14T04:31:13;9.78;85.26
35085;SHT85;21267;51.032;6.998;2024-02-14T04:33:40;9.80;85.32
35085;SHT85;21267;51.032;6.998;2024-02-14T04:36:07;9.80;85.35
35085;SHT85;21267;51.032;6.998;2024-02-14T04:38:34;9.80;85.31
35085;SHT85;21267;51.032;6.998;2024-02-14T04:41:01;9.77;85.37
35085;SHT85;21267;51.032;6.998;2024-02-14T04:43:28;9.81;85.40
35085;SHT85;21267;51.032;6.998;2024-02-14T04:45:54;9.75;85.49
35085;SHT85;21267;51.032;6.998;2024-02-14T04:48:21;9.78;85.21
35085;SHT85;21267;51.032;6.998;2024-02-14T04:50:48;9.80;85.28
35085;SHT85;21267;51.032;6.998;2024-02-14T04:53:15;9.81;85.26
35085;SHT85;21267;51.032;6.998;2024-02-14T04:55:43;9.82;85.15
35085;SHT85;21267;51.032;6.998;2024-02-14T04:58:11;9.82;85.17
35085;SHT85;21267;51.032;6.998;2024-02-14T05:00:38;9.82;85.34
35085;SHT85;21267;51.032;6.998;2024-02-14T05:03:05;9.81;85.26
35085;SHT85;21267;51.032;6.998;2024-02-14T05:05:32;9.84;85.28
35085;SHT85;21267;51.032;6.998;2024-02-14T05:08:00;9.88;85.21
35085;SHT85;21267;51.032;6.998;2024-02-14T05:10:28;9.84;85.39
35085;SHT85;21267;51.032;6.998;2024-02-14T05:12:59;9.87;85.28
35085;SHT85;21267;51.032;6.998;2024-02-14T05:15:27;9.87;85.27
35085;SHT85;21267;51.032;6.998;2024-02-14T05:17:54;9.92;85.22
35085;SHT85;21267;51.032;6.998;2024-02-14T05:20:23;9.95;85.22
35085;SHT85;21267;51.032;6.998;2024-02-14T05:22:50;9.91;85.37
35085;SHT85;21267;51.032;6.998;2024-02-14T05:25:16;9.92;85.28
35085;SHT85;21267;51.032;6.998;2024-02-14T05:27:45;9.91;85.31
35085;SHT85;21267;51.032;6.998;2024-02-14T05:30:13;9.98;85.35
35085;SHT85;21267;51.032;6.998;2024-02-14T05:32:41;9.90;85.45
35085;SHT85;21267;51.032;6.998;2024-02-14T05:35:07;9.99;85.53
35085;SHT85;21267;51.032;6.998;2024-02-14T05:37:34;9.84;86.61
35085;SHT85;21267;51.032;6.998;2024-02-14T05:40:05;9.63;88.22
35085;SHT85;21267;51.032;6.998;2024-02-14T05:42:33;9.46;89.48
35085;SHT85;21267;51.032;6.998;2024-02-14T05:45:01;9.34;90.26
35085;SHT85;21267;51.032;6.998;2024-02-14T05:47:32;9.24;90.84
35085;SHT85;21267;51.032;6.998;2024-02-14T05:50:01;9.22;91.07
35085;SHT85;21267;51.032;6.998;2024-02-14T05:52:27;9.20;91.28
35085;SHT85;21267;51.032;6.998;2024-02-14T05:54:54;9.27;91.16
35085;SHT85;21267;51.032;6.998;2024-02-14T05:57:21;9.30;90.93
35085;SHT85;21267;51.032;6.998;2024-02-14T05:59:47;9.29;90.98
35085;SHT85;21267;51.032;6.998;2024-02-14T06:02:14;9.29;90.98
35085;SHT85;21267;51.032;6.998;2024-02-14T06:04:41;9.24;91.13
35085;SHT85;21267;51.032;6.998;2024-02-14T06:07:09;9.32;90.95
35085;SHT85;21267;51.032;6.998;2024-02-14T06:09:38;9.37;90.64
35085;SHT85;21267;51.032;6.998;2024-02-14T06:12:06;9.39;90.56
35085;SHT85;21267;51.032;6.998;2024-02-14T06:14:36;9.50;90.26
35085;SHT85;21267;51.032;6.998;2024-02-14T06:17:03;9.50;90.45
35085;SHT85;21267;51.032;6.998;2024-02-14T06:19:30;9.51;90.53
35085;SHT85;21267;51.032;6.998;2024-02-14T06:21:57;9.54;90.72
35085;SHT85;21267;51.032;6.998;2024-02-14T06:24:25;9.57;90.66
35085;SHT85;21267;51.032;6.998;2024-02-14T06:26:54;9.63;90.82
35085;SHT85;21267;51.032;6.998;2024-02-14T06:29:21;9.61;90.70
35085;SHT85;21267;51.032;6.998;2024-02-14T06:31:48;9.60;91.00
35085;SHT85;21267;51.032;6.998;2024-02-14T06:34:14;9.64;90.90
35085;SHT85;21267;51.032;6.998;2024-02-14T06:36:42;9.61;90.89
35085;SHT85;21267;51.032;6.998;2024-02-14T06:39:09;9.63;90.89
35085;SHT85;21267;51.032;6.998;2024-02-14T06:41:35;9.64;90.61
35085;SHT85;21267;51.032;6.998;2024-02-14T06:44:04;9.69;90.50
35085;SHT85;21267;51.032;6.998;2024-02-14T06:46:32;9.70;90.53
35085;SHT85;21267;51.032;6.998;2024-02-14T06:48:59;9.73;90.16
35085;SHT85;21267;51.032;6.998;2024-02-14T06:51:26;9.70;90.55
35085;SHT85;21267;51.032;6.998;2024-02-14T06:53:53;9.63;90.63
35085;SHT85;21267;51.032;6.998;2024-02-14T06:56:20;9.57;90.77
35085;SHT85;21267;51.032;6.998;2024-02-14T06:58:48;9.55;90.81
35085;SHT85;21267;51.032;6.998;2024-02-14T07:01:21;9.58;90.71
35085;SHT85;21267;51.032;6.998;2024-02-14T07:03:50;9.58;90.68
35085;SHT85;21267;51.032;6.998;2024-02-14T07:06:18;9.63;90.50
35085;SHT85;21267;51.032;6.998;2024-02-14T07:08:46;9.63;90.42
35085;SHT85;21267;51.032;6.998;2024-02-14T07:11:14;9.64;90.58
35085;SHT85;21267;51.032;6.998;2024-02-14T07:13:42;9.71;90.08
35085;SHT85;21267;51.032;6.998;2024-02-14T07:16:10;9.67;90.10
35085;SHT85;21267;51.032;6.998;2024-02-14T07:18:38;9.70;90.05
35085;SHT85;21267;51.032;6.998;2024-02-14T07:21:05;9.78;89.86
35085;SHT85;21267;51.032;6.998;2024-02-14T07:23:32;9.81;89.37
35085;SHT85;21267;51.032;6.998;2024-02-14T07:26:00;9.80;89.34
35085;SHT85;21267;51.032;6.998;2024-02-14T07:28:30;9.87;89.07
35085;SHT85;21267;51.032;6.998;2024-02-14T07:33:41;9.91;88.81
35085;SHT85;21267;51.032;6.998;2024-02-14T07:36:21;9.95;88.80
35085;SHT85;21267;51.032;6.998;2024-02-14T07:39:01;9.95;88.68
35085;SHT85;21267;51.032;6.998;2024-02-14T07:41:28;9.95;88.81
35085;SHT85;21267;51.032;6.998;2024-02-14T07:44:11;9.99;88.39
35085;SHT85;21267;51.032;6.998;2024-02-14T07:46:38;10.02;88.31
35085;SHT85;21267;51.032;6.998;2024-02-14T07:49:05;10.03;88.37
35085;SHT85;21267;51.032;6.998;2024-02-14T07:51:33;10.06;88.25
35085;SHT85;21267;51.032;6.998;2024-02-14T07:54:05;10.09;88.09
35085;SHT85;21267;51.032;6.998;2024-02-14T07:56:33;10.11;87.93
35085;SHT85;21267;51.032;6.998;2024-02-14T07:59:00;10.12;87.97
35085;SHT85;21267;51.032;6.998;2024-02-14T08:01:27;10.08;88.06
35085;SHT85;21267;51.032;6.998;2024-02-14T08:03:58;10.12;88.01
35085;SHT85;21267;51.032;6.998;2024-02-14T08:06:29;10.15;87.99
35085;SHT85;21267;51.032;6.998;2024-02-14T08:08:56;10.18;87.97
35085;SHT85;21267;51.032;6.998;2024-02-14T08:11:28;10.25;87.80
35085;SHT85;21267;51.032;6.998;2024-02-14T08:13:55;10.29;87.48
35085;SHT85;21267;51.032;6.998;2024-02-14T08:16:22;10.36;87.68
35085;SHT85;21267;51.032;6.998;2024-02-14T08:18:49;10.42;87.35
35085;SHT85;21267;51.032;6.998;2024-02-14T08:21:17;10.38;87.39
35085;SHT85;21267;51.032;6.998;2024-02-14T08:23:45;10.42;87.32
35085;SHT85;21267;51.032;6.998;2024-02-14T08:26:12;10.42;87.50
35085;SHT85;21267;51.032;6.998;2024-02-14T08:28:41;10.39;87.20
35085;SHT85;21267;51.032;6.998;2024-02-14T08:31:11;10.46;86.83
35085;SHT85;21267;51.032;6.998;2024-02-14T08:33:39;10.49;86.83
35085;SHT85;21267;51.032;6.998;2024-02-14T08:36:06;10.53;86.63
35085;SHT85;21267;51.032;6.998;2024-02-14T08:38:34;10.67;86.49
35085;SHT85;21267;51.032;6.998;2024-02-14T08:41:04;10.67;86.24
35085;SHT85;21267;51.032;6.998;2024-02-14T08:43:31;10.76;86.12
35085;SHT85;21267;51.032;6.998;2024-02-14T08:45:58;10.81;85.88
35085;SHT85;21267;51.032;6.998;2024-02-14T08:48:26;10.84;85.72
35085;SHT85;21267;51.032;6.998;2024-02-14T08:50:55;10.90;85.70
35085;SHT85;21267;51.032;6.998;2024-02-14T08:53:24;10.92;85.50
35085;SHT85;21267;51.032;6.998;2024-02-14T08:55:53;10.94;85.43
35085;SHT85;21267;51.032;6.998;2024-02-14T08:58:20;10.95;85.45
35085;SHT85;21267;51.032;6.998;2024-02-14T09:00:49;10.97;85.54
35085;SHT85;21267;51.032;6.998;2024-02-14T09:03:21;11.04;85.47
35085;SHT85;21267;51.032;6.998;2024-02-14T09:05:48;11.17;85.39
35085;SHT85;21267;51.032;6.998;2024-02-14T09:08:15;11.22;85.10
35085;SHT85;21267;51.032;6.998;2024-02-14T09:10:44;11.46;84.75
35085;SHT85;21267;51.032;6.998;2024-02-14T09:13:13;11.49;84.41
35085;SHT85;21267;51.032;6.998;2024-02-14T09:15:41;11.53;84.37
35085;SHT85;21267;51.032;6.998;2024-02-14T09:18:07;11.75;84.00
35085;SHT85;21267;51.032;6.998;2024-02-14T09:20:35;11.99;83.23
35085;SHT85;21267;51.032;6.998;2024-02-14T09:23:02;11.96;82.96
35085;SHT85;21267;51.032;6.998;2024-02-14T09:25:29;12.06;83.07
35085;SHT85;21267;51.032;6.998;2024-02-14T09:27:55;12.11;82.89
35085;SHT85;21267;51.032;6.998;2024-02-14T09:30:23;12.18;82.83
35085;SHT85;21267;51.032;6.998;2024-02-14T09:33:03;12.22;82.80
35085;SHT85;21267;51.032;6.998;2024-02-14T09:35:32;12.22;82.41
35085;SHT85;21267;51.032;6.998;2024-02-14T09:37:59;12.18;82.27
35085;SHT85;21267;51.032;6.998;2024-02-14T09:40:26;12.21;82.53
35085;SHT85;21267;51.032;6.998;2024-02-14T09:42:54;12.37;82.02
35085;SHT85;21267;51.032;6.998;2024-02-14T09:45:25;12.39;81.85
35085;SHT85;21267;51.032;6.998;2024-02-14T09:47:53;12.37;81.87
35085;SHT85;21267;51.032;6.998;2024-02-14T09:50:21;12.37;81.80
35085;SHT85;21267;51.032;6.998;2024-02-14T09:52:48;12.45;81.89
35085;SHT85;21267;51.032;6.998;2024-02-14T09:55:15;12.39;82.02
35085;SHT85;21267;51.032;6.998;2024-02-14T09:57:43;12.44;82.04
35085;SHT85;21267;51.032;6.998;2024-02-14T10:00:10;12.42;82.08
35085;SHT85;21267;51.032;6.998;2024-02-14T10:02:38;12.48;82.09
35085;SHT85;21267;51.032;6.998;2024-02-14T10:05:04;12.48;81.74
35085;SHT85;21267;51.032;6.998;2024-02-14T10:07:50;12.54;81.75
35085;SHT85;21267;51.032;6.998;2024-02-14T10:10:17;12.52;81.82
35085;SHT85;21267;51.032;6.998;2024-02-14T10:12:44;12.51;82.06
35085;SHT85;21267;51.032;6.998;2024-02-14T10:15:11;12.58;81.99
35085;SHT85;21267;51.032;6.998;2024-02-14T10:17:41;12.58;81.70
35085;SHT85;21267;51.032;6.998;2024-02-14T10:20:09;12.64;81.84
35085;SHT85;21267;51.032;6.998;2024-02-14T10:22:36;12.68;81.86
35085;SHT85;21267;51.032;6.998;2024-02-14T10:25:04;12.69;81.82
35085;SHT85;21267;51.032;6.998;2024-02-14T10:27:39;12.54;83.11
35085;SHT85;21267;51.032;6.998;2024-02-14T10:30:09;12.48;83.62
35085;SHT85;21267;51.032;6.998;2024-02-14T10:32:37;12.41;83.28
35085;SHT85;21267;51.032;6.998;2024-02-14T10:35:07;12.51;83.05
35085;SHT85;21267;51.032;6.998;2024-02-14T10:37:35;12.54;82.77
35085;SHT85;21267;51.032;6.998;2024-02-14T10:40:03;12.64;82.42
35085;SHT85;21267;51.032;6.998;2024-02-14T10:42:32;12.78;81.86
35085;SHT85;21267;51.032;6.998;2024-02-14T10:45:00;12.93;81.09
35085;SHT85;21267;51.032;6.998;2024-02-14T10:47:32;13.19;80.64
35085;SHT85;21267;51.032;6.998;2024-02-14T10:50:05;13.33;80.22
35085;SHT85;21267;51.032;6.998;2024-02-14T10:52:36;13.24;80.63
35085;SHT85;21267;51.032;6.998;2024-02-14T10:55:04;13.37;80.85
35085;SHT85;21267;51.032;6.998;2024-02-14T10:57:32;13.33;80.26
35085;SHT85;21267;51.032;6.998;2024-02-14T11:00:06;13.53;79.96
35085;SHT85;21267;51.032;6.998;2024-02-14T11:02:38;13.94;79.50
35085;SHT85;21267;51.032;6.998;2024-02-14T11:05:05;13.98;78.82
35085;SHT85;21267;51.032;6.998;2024-02-14T11:07:37;13.79;78.99
35085;SHT85;21267;51.032;6.998;2024-02-14T11:10:06;13.78;79.75
35085;SHT85;21267;51.032;6.998;2024-02-14T11:12:35;13.54;80.39
35085;SHT85;21267;51.032;6.998;2024-02-14T11:17:43;13.50;81.74
35085;SHT85;21267;51.032;6.998;2024-02-14T11:20:20;13.15;83.45
35085;SHT85;21267;51.032;6.998;2024-02-14T11:23:01;12.99;84.23
35085;SHT85;21267;51.032;6.998;2024-02-14T11:25:31;12.93;85.51
35085;SHT85;21267;51.032;6.998;2024-02-14T11:27:58;12.69;87.27
35085;SHT85;21267;51.032;6.998;2024-02-14T11:30:30;12.55;87.24
35085;SHT85;21267;51.032;6.998;2024-02-14T11:33:23;12.79;86.90
35085;SHT85;21267;51.032;6.998;2024-02-14T11:35:54;12.95;86.52
35085;SHT85;21267;51.032;6.998;2024-02-14T11:38:23;12.97;86.10
35085;SHT85;21267;51.032;6.998;2024-02-14T11:40:56;12.89;85.92
35085;SHT85;21267;51.032;6.998;2024-02-14T11:43:25;12.83;85.85
35085;SHT85;21267;51.032;6.998;2024-02-14T11:45:53;12.78;85.58
35085;SHT85;21267;51.032;6.998;2024-02-14T11:48:21;12.83;85.14
35085;SHT85;21267;51.032;6.998;2024-02-14T11:50:48;12.89;84.66
35085;SHT85;21267;51.032;6.998;2024-02-14T11:53:15;12.88;84.42
35085;SHT85;21267;51.032;6.998;2024-02-14T11:55:50;12.93;84.30
35085;SHT85;21267;51.032;6.998;2024-02-14T11:58:18;13.02;84.07
35085;SHT85;21267;51.032;6.998;2024-02-14T12:00:48;13.03;83.55
35085;SHT85;21267;51.032;6.998;2024-02-14T12:03:20;13.10;83.12
35085;SHT85;21267;51.032;6.998;2024-02-14T12:05:51;13.10;82.55
35085;SHT85;21267;51.032;6.998;2024-02-14T12:08:20;12.95;83.79
35085;SHT85;21267;51.032;6.998;2024-02-14T12:10:47;12.51;86.01
35085;SHT85;21267;51.032;6.998;2024-02-14T12:13:23;12.38;86.08
35085;SHT85;21267;51.032;6.998;2024-02-14T12:15:51;12.49;85.85
35085;SHT85;21267;51.032;6.998;2024-02-14T12:18:20;12.51;86.12
35085;SHT85;21267;51.032;6.998;2024-02-14T12:20:49;12.66;85.06
35085;SHT85;21267;51.032;6.998;2024-02-14T12:23:22;12.72;84.60
35085;SHT85;21267;51.032;6.998;2024-02-14T12:25:52;12.79;84.03
35085;SHT85;21267;51.032;6.998;2024-02-14T12:28:19;12.86;83.65
35085;SHT85;21267;51.032;6.998;2024-02-14T12:30:50;12.85;84.00
35085;SHT85;21267;51.032;6.998;2024-02-14T12:33:25;12.76;84.66
35085;SHT85;21267;51.032;6.998;2024-02-14T12:35:56;12.78;84.92
35085;SHT85;21267;51.032;6.998;2024-02-14T12:38:24;12.71;85.27
35085;SHT85;21267;51.032;6.998;2024-02-14T12:40:51;12.62;86.17
35085;SHT85;21267;51.032;6.998;2024-02-14T12:43:21;12.52;86.67
35085;SHT85;21267;51.032;6.998;2024-02-14T12:45:48;12.48;87.22
35085;SHT85;21267;51.032;6.998;2024-02-14T12:48:22;12.47;86.63
35085;SHT85;21267;51.032;6.998;2024-02-14T12:50:51;12.57;85.83
35085;SHT85;21267;51.032;6.998;2024-02-14T12:53:19;12.61;85.59
35085;SHT85;21267;51.032;6.998;2024-02-14T12:55:47;12.48;86.25
35085;SHT85;21267;51.032;6.998;2024-02-14T12:58:15;12.34;86.73
35085;SHT85;21267;51.032;6.998;2024-02-14T13:00:42;12.31;87.24
35085;SHT85;21267;51.032;6.998;2024-02-14T13:03:12;12.37;86.58
35085;SHT85;21267;51.032;6.998;2024-02-14T13:05:44;12.44;86.83
35085;SHT85;21267;51.032;6.998;2024-02-14T13:08:14;12.54;86.17
35085;SHT85;21267;51.032;6.998;2024-02-14T13:10:43;12.68;85.96
35085;SHT85;21267;51.032;6.998;2024-02-14T13:13:10;12.79;84.48
35085;SHT85;21267;51.032;6.998;2024-02-14T13:15:37;12.88;84.56
35085;SHT85;21267;51.032;6.998;2024-02-14T13:18:05;12.92;83.75
35085;SHT85;21267;51.032;6.998;2024-02-14T13:20:32;12.92;83.70
35085;SHT85;21267;51.032;6.998;2024-02-14T13:22:59;12.93;83.70
35085;SHT85;21267;51.032;6.998;2024-02-14T13:25:25;13.00;83.56
35085;SHT85;21267;51.032;6.998;2024-02-14T13:27:53;13.02;83.48
35085;SHT85;21267;51.032;6.998;2024-02-14T13:30:21;13.07;82.95
35085;SHT85;21267;51.032;6.998;2024-02-14T13:32:50;13.10;83.07
35085;SHT85;21267;51.032;6.998;2024-02-14T13:35:17;13.13;83.07
35085;SHT85;21267;51.032;6.998;2024-02-14T13:37:44;13.10;83.14
35085;SHT85;21267;51.032;6.998;2024-02-14T13:40:11;13.17;83.19
35085;SHT85;21267;51.032;6.998;2024-02-14T13:42:38;13.13;83.14
35085;SHT85;21267;51.032;6.998;2024-02-14T13:45:06;13.16;83.25
35085;SHT85;21267;51.032;6.998;2024-02-14T13:47:39;13.15;83.20
35085;SHT85;21267;51.032;6.998;2024-02-14T13:50:08;13.15;83.36
35085;SHT85;21267;51.032;6.998;2024-02-14T13:52:36;13.07;84.02
35085;SHT85;21267;51.032;6.998;2024-02-14T13:55:03;12.95;84.90
35085;SHT85;21267;51.032;6.998;2024-02-14T13:57:35;12.85;85.45
35085;SHT85;21267;51.032;6.998;2024-02-14T14:00:04;12.71;86.05
35085;SHT85;21267;51.032;6.998;2024-02-14T14:02:31;12.69;86.72
35085;SHT85;21267;51.032;6.998;2024-02-14T14:04:58;12.59;87.11
35085;SHT85;21267;51.032;6.998;2024-02-14T14:07:25;12.39;88.65
35085;SHT85;21267;51.032;6.998;2024-02-14T14:09:52;12.27;89.81
35085;SHT85;21267;51.032;6.998;2024-02-14T14:12:18;12.04;91.00
35085;SHT85;21267;51.032;6.998;2024-02-14T14:14:45;11.97;91.98
35085;SHT85;21267;51.032;6.998;2024-02-14T14:17:13;11.97;92.13
35085;SHT85;21267;51.032;6.998;2024-02-14T14:19:39;11.89;92.83
35085;SHT85;21267;51.032;6.998;2024-02-14T14:22:06;11.91;92.68
35085;SHT85;21267;51.032;6.998;2024-02-14T14:24:33;11.89;92.83
35085;SHT85;21267;51.032;6.998;2024-02-14T14:27:04;11.87;93.10
35085;SHT85;21267;51.032;6.998;2024-02-14T14:29:35;11.82;93.59
35085;SHT85;21267;51.032;6.998;2024-02-14T14:32:01;11.78;93.95
35085;SHT85;21267;51.032;6.998;2024-02-14T14:34:29;11.67;94.20
35085;SHT85;21267;51.032;6.998;2024-02-14T14:37:01;11.67;94.86
35085;SHT85;21267;51.032;6.998;2024-02-14T14:39:29;11.60;95.23
35085;SHT85;21267;51.032;6.998;2024-02-14T14:41:57;11.63;95.42
35085;SHT85;21267;51.032;6.998;2024-02-14T14:44:27;11.59;95.59
35085;SHT85;21267;51.032;6.998;2024-02-14T14:46:54;11.50;96.10
35085;SHT85;21267;51.032;6.998;2024-02-14T14:49:20;11.50;96.27
35085;SHT85;21267;51.032;6.998;2024-02-14T14:51:47;11.45;96.75
35085;SHT85;21267;51.032;6.998;2024-02-14T14:54:14;11.49;97.04
35085;SHT85;21267;51.032;6.998;2024-02-14T14:56:44;11.43;97.40
35085;SHT85;21267;51.032;6.998;2024-02-14T14:59:12;11.41;97.73
35085;SHT85;21267;51.032;6.998;2024-02-14T15:01:40;11.42;98.02
35085;SHT85;21267;51.032;6.998;2024-02-14T15:04:07;11.36;98.24
35085;SHT85;21267;51.032;6.998;2024-02-14T15:06:34;11.39;98.40
35085;SHT85;21267;51.032;6.998;2024-02-14T15:09:01;11.35;98.52
35085;SHT85;21267;51.032;6.998;2024-02-14T15:11:31;11.39;98.71
35085;SHT85;21267;51.032;6.998;2024-02-14T15:14:04;11.35;98.88
35085;SHT85;21267;51.032;6.998;2024-02-14T15:16:33;11.34;98.99
35085;SHT85;21267;51.032;6.998;2024-02-14T15:19:00;11.32;99.12
35085;SHT85;21267;51.032;6.998;2024-02-14T15:21:27;11.27;99.17
35085;SHT85;21267;51.032;6.998;2024-02-14T15:23:56;11.24;99.28
35085;SHT85;21267;51.032;6.998;2024-02-14T15:26:23;11.25;99.35
35085;SHT85;21267;51.032;6.998;2024-02-14T15:28:51;11.24;99.48
35085;SHT85;21267;51.032;6.998;2024-02-14T15:31:40;11.22;99.47
35085;SHT85;21267;51.032;6.998;2024-02-14T15:34:25;11.21;99.50
35085;SHT85;21267;51.032;6.998;2024-02-14T15:36:53;11.25;99.59
35085;SHT85;21267;51.032;6.998;2024-02-14T15:39:19;11.21;99.62
35085;SHT85;21267;51.032;6.998;2024-02-14T15:41:46;11.22;99.66
35085;SHT85;21267;51.032;6.998;2024-02-14T15:44:13;11.19;99.69
35085;SHT85;21267;51.032;6.998;2024-02-14T15:46:40;11.19;99.69
35085;SHT85;21267;51.032;6.998;2024-02-14T15:49:06;11.17;99.79
35085;SHT85;21267;51.032;6.998;2024-02-14T15:51:37;11.17;99.82
35085;SHT85;21267;51.032;6.998;2024-02-14T15:54:04;11.11;99.81